PWSweather.com
Personal Weather Stations
Station Observations
719732
Ponferrada, PonferradaES 24411

PonferradaPonferradaES 24411

Lat: 42.5728, Lon: -6.6425

Elevation: 1676

Station Type: PCE-FWS 20 con garita Ambient Weather SRS100LX

www.meteo.spyfly.es

High Low Average
Temperature 47.8°F8.8°C 37.2°F2.9°C 40.3°F4.6°C
Dew Point 38.4°F3.6°C 33.7°F0.9°C 36.2°F2.3°C
Winds 15.2 mph 24.5 kmh Calm Calm 5.0 mph W8.0 kmh W
Wind Gusts 24.4 mph39.3 kmh 2.2 mph3.5 kmh 12.0 mph19.3 kmh
Humidity 93% 67% 85%
Pressure 29.78 in1008.5 mb 29.60 in1002.4 mb -
Precipitation 1.09 in27.7 mm - -
Hour Temp Dew Point Humidity Winds Wind Gusts Pressure Precip Precip Rate Daily Precip Total
12:00 AM 40.8°F4.9°C 38.4°F3.6°C 91% 3.8 mph WNW6.1 kmh WNW 6.9 mph11.1 kmh 29.60 in1002.4 mb 0.07 in1.8 mm 0.00 in0.0 mm 1.02 in25.9 mm
12:05 AM 40.8°F4.9°C 38.4°F3.6°C 91% 3.8 mph NW6.1 kmh NW 6.9 mph11.1 kmh 29.61 in1002.7 mb 0.08 in2.0 mm 0.12 in3.0 mm 1.03 in26.2 mm
12:10 AM 40.3°F4.6°C 37.9°F3.3°C 91% 3.1 mph NW5.0 kmh NW 5.4 mph8.7 kmh 29.61 in1002.7 mb 0.11 in2.8 mm 0.36 in9.1 mm 1.06 in26.9 mm
12:15 AM 40.3°F4.6°C 37.9°F3.3°C 91% 4.5 mph SW7.2 kmh SW 7.6 mph12.2 kmh 29.60 in1002.4 mb 0.12 in3.0 mm 0.12 in3.0 mm 1.07 in27.2 mm
12:20 AM 40.1°F4.5°C 38.0°F3.3°C 92% 3.1 mph S5.0 kmh S 8.3 mph13.4 kmh 29.60 in1002.4 mb 0.12 in3.0 mm 0.00 in0.0 mm 1.07 in27.2 mm
12:25 AM 39.9°F4.4°C 37.8°F3.2°C 92% 3.1 mph SW5.0 kmh SW 10.7 mph17.2 kmh 29.60 in1002.4 mb 0.12 in3.0 mm 0.00 in0.0 mm 1.07 in27.2 mm
12:30 AM 39.7°F4.3°C 37.6°F3.1°C 92% 4.5 mph SW7.2 kmh SW 10.7 mph17.2 kmh 29.60 in1002.4 mb 0.12 in3.0 mm 0.00 in0.0 mm 1.07 in27.2 mm
12:35 AM 39.7°F4.3°C 37.6°F3.1°C 92% 8.3 mph SW13.4 kmh SW 12.1 mph19.5 kmh 29.60 in1002.4 mb 0.12 in3.0 mm 0.00 in0.0 mm 1.07 in27.2 mm
12:40 AM 39.9°F4.4°C 38.1°F3.4°C 93% 6.9 mph WSW11.1 kmh WSW 12.1 mph19.5 kmh 29.60 in1002.4 mb 0.12 in3.0 mm 0.00 in0.0 mm 1.09 in27.7 mm
12:45 AM 39.9°F4.4°C 38.1°F3.4°C 93% 6.0 mph WSW9.7 kmh WSW 13.6 mph21.9 kmh 29.60 in1002.4 mb 0.12 in3.0 mm 0.00 in0.0 mm 1.09 in27.7 mm
12:50 AM 39.9°F4.4°C 37.8°F3.2°C 92% 6.9 mph WSW11.1 kmh WSW 13.6 mph21.9 kmh 29.61 in1002.7 mb 0.11 in2.8 mm 0.00 in0.0 mm 1.09 in27.7 mm
12:55 AM 39.9°F4.4°C 37.8°F3.2°C 92% 3.1 mph WSW5.0 kmh WSW 13.6 mph21.9 kmh 29.60 in1002.4 mb 0.09 in2.3 mm 0.00 in0.0 mm 1.09 in27.7 mm
01:00 AM 39.9°F4.4°C 37.8°F3.2°C 92% 6.0 mph WSW9.7 kmh WSW 10.7 mph17.2 kmh 29.61 in1002.7 mb 0.06 in1.5 mm 0.00 in0.0 mm 0.12 in3.0 mm
01:05 AM 39.9°F4.4°C 37.5°F3.1°C 91% 3.1 mph W5.0 kmh W 10.7 mph17.2 kmh 29.60 in1002.4 mb 0.06 in1.5 mm 0.00 in0.0 mm 0.12 in3.0 mm
01:10 AM 39.9°F4.4°C 37.5°F3.1°C 91% 5.4 mph WSW8.7 kmh WSW 9.2 mph14.8 kmh 29.60 in1002.4 mb 0.01 in0.3 mm 0.00 in0.0 mm 0.12 in3.0 mm
01:15 AM 39.9°F4.4°C 37.5°F3.1°C 91% 4.5 mph W7.2 kmh W 9.2 mph14.8 kmh 29.60 in1002.4 mb 0.01 in0.3 mm 0.00 in0.0 mm 0.12 in3.0 mm
01:20 AM 39.9°F4.4°C 37.5°F3.1°C 91% 7.6 mph WNW12.2 kmh WNW 13.6 mph21.9 kmh 29.60 in1002.4 mb 0.01 in0.3 mm 0.00 in0.0 mm 0.12 in3.0 mm
01:25 AM 39.9°F4.4°C 37.5°F3.1°C 91% 5.4 mph NW8.7 kmh NW 13.6 mph21.9 kmh 29.60 in1002.4 mb 0.01 in0.3 mm 0.00 in0.0 mm 0.12 in3.0 mm
01:30 AM 39.7°F4.3°C 37.1°F2.8°C 90% 3.1 mph W5.0 kmh W 13.6 mph21.9 kmh 29.60 in1002.4 mb 0.01 in0.3 mm 0.00 in0.0 mm 0.12 in3.0 mm
01:35 AM 39.7°F4.3°C 36.8°F2.7°C 89% 6.0 mph W9.7 kmh W 10.7 mph17.2 kmh 29.60 in1002.4 mb 0.01 in0.3 mm 0.00 in0.0 mm 0.12 in3.0 mm
01:40 AM 39.7°F4.3°C 36.8°F2.7°C 89% 3.1 mph WNW5.0 kmh WNW 11.4 mph18.3 kmh 29.61 in1002.7 mb 0.00 in0.0 mm 0.00 in0.0 mm 0.12 in3.0 mm
01:45 AM 39.6°F4.2°C 36.3°F2.4°C 88% 6.9 mph NW11.1 kmh NW 11.4 mph18.3 kmh 29.60 in1002.4 mb 0.00 in0.0 mm 0.00 in0.0 mm 0.12 in3.0 mm
01:50 AM 39.6°F4.2°C 36.3°F2.4°C 88% 5.4 mph WNW8.7 kmh WNW 11.4 mph18.3 kmh 29.61 in1002.7 mb 0.00 in0.0 mm 0.00 in0.0 mm 0.12 in3.0 mm
01:55 AM 39.6°F4.2°C 36.3°F2.4°C 88% 4.5 mph W7.2 kmh W 11.4 mph18.3 kmh 29.60 in1002.4 mb 0.00 in0.0 mm 0.00 in0.0 mm 0.12 in3.0 mm
02:00 AM 39.6°F4.2°C 36.3°F2.4°C 88% 7.6 mph WNW12.2 kmh WNW 11.4 mph18.3 kmh 29.61 in1002.7 mb 0.00 in0.0 mm 0.00 in0.0 mm 0.12 in3.0 mm
02:05 AM 39.6°F4.2°C 36.3°F2.4°C 88% 7.6 mph NW12.2 kmh NW 11.4 mph18.3 kmh 29.61 in1002.7 mb 0.00 in0.0 mm 0.00 in0.0 mm 0.12 in3.0 mm
02:10 AM 39.7°F4.3°C 36.8°F2.7°C 89% 6.9 mph NW11.1 kmh NW 15.9 mph25.6 kmh 29.61 in1002.7 mb 0.01 in0.3 mm 0.12 in3.0 mm 0.01 in0.3 mm
02:15 AM 39.6°F4.2°C 36.6°F2.6°C 89% 4.5 mph NW7.2 kmh NW 15.9 mph25.6 kmh 29.61 in1002.7 mb 0.01 in0.3 mm 0.00 in0.0 mm 0.01 in0.3 mm
02:20 AM 39.4°F4.1°C 36.4°F2.4°C 89% 7.6 mph NW12.2 kmh NW 15.2 mph24.5 kmh 29.61 in1002.7 mb 0.04 in1.0 mm 0.36 in9.1 mm 0.04 in1.0 mm
02:25 AM 38.7°F3.7°C 35.7°F2.1°C 89% 10.7 mph NW17.2 kmh NW 17.4 mph28.0 kmh 29.61 in1002.7 mb 0.05 in1.3 mm 0.12 in3.0 mm 0.05 in1.3 mm
02:30 AM 37.9°F3.3°C 35.0°F1.7°C 89% 6.9 mph NW11.1 kmh NW 17.4 mph28.0 kmh 29.60 in1002.4 mb 0.06 in1.5 mm 0.12 in3.0 mm 0.06 in1.5 mm
02:35 AM 37.8°F3.2°C 34.8°F1.6°C 89% 3.8 mph NW6.1 kmh NW 13.6 mph21.9 kmh 29.61 in1002.7 mb 0.07 in1.8 mm 0.12 in3.0 mm 0.07 in1.8 mm
02:40 AM 37.6°F3.1°C 34.9°F1.6°C 90% 3.8 mph WNW6.1 kmh WNW 11.4 mph18.3 kmh 29.61 in1002.7 mb 0.07 in1.8 mm 0.00 in0.0 mm 0.07 in1.8 mm
02:45 AM 37.6°F3.1°C 34.9°F1.6°C 90% 3.1 mph WNW5.0 kmh WNW 10.7 mph17.2 kmh 29.61 in1002.7 mb 0.08 in2.0 mm 0.12 in3.0 mm 0.08 in2.0 mm
02:50 AM 37.6°F3.1°C 35.2°F1.8°C 91% 5.4 mph W8.7 kmh W 7.6 mph12.2 kmh 29.61 in1002.7 mb 0.08 in2.0 mm 0.00 in0.0 mm 0.08 in2.0 mm
02:55 AM 37.8°F3.2°C 35.7°F2.1°C 92% 2.2 mph WSW3.5 kmh WSW 7.6 mph12.2 kmh 29.61 in1002.7 mb 0.08 in2.0 mm 0.00 in0.0 mm 0.08 in2.0 mm
03:00 AM 37.8°F3.2°C 35.7°F2.1°C 92% 3.1 mph WSW5.0 kmh WSW 7.6 mph12.2 kmh 29.61 in1002.7 mb 0.08 in2.0 mm 0.00 in0.0 mm 0.08 in2.0 mm
03:05 AM 37.8°F3.2°C 35.7°F2.1°C 92% 5.4 mph W8.7 kmh W 9.8 mph15.8 kmh 29.60 in1002.4 mb 0.08 in2.0 mm 0.00 in0.0 mm 0.08 in2.0 mm
03:10 AM 37.9°F3.3°C 36.1°F2.3°C 93% 6.0 mph W9.7 kmh W 9.8 mph15.8 kmh 29.61 in1002.7 mb 0.07 in1.8 mm 0.00 in0.0 mm 0.08 in2.0 mm
03:15 AM 37.9°F3.3°C 36.1°F2.3°C 93% 6.9 mph WNW11.1 kmh WNW 9.8 mph15.8 kmh 29.61 in1002.7 mb 0.08 in2.0 mm 0.12 in3.0 mm 0.09 in2.3 mm
03:20 AM 37.9°F3.3°C 36.1°F2.3°C 93% 5.4 mph W8.7 kmh W 11.4 mph18.3 kmh 29.61 in1002.7 mb 0.06 in1.5 mm 0.00 in0.0 mm 0.09 in2.3 mm
03:25 AM 37.9°F3.3°C 36.1°F2.3°C 93% 7.6 mph W12.2 kmh W 12.1 mph19.5 kmh 29.61 in1002.7 mb 0.05 in1.3 mm 0.00 in0.0 mm 0.09 in2.3 mm
03:30 AM 37.9°F3.3°C 36.1°F2.3°C 93% 3.8 mph WSW6.1 kmh WSW 12.1 mph19.5 kmh 29.61 in1002.7 mb 0.04 in1.0 mm 0.00 in0.0 mm 0.09 in2.3 mm
03:35 AM 37.9°F3.3°C 36.1°F2.3°C 93% 3.1 mph WSW5.0 kmh WSW 12.1 mph19.5 kmh 29.61 in1002.7 mb 0.02 in0.5 mm 0.00 in0.0 mm 0.09 in2.3 mm
03:40 AM 37.8°F3.2°C 35.9°F2.2°C 93% 3.8 mph WNW6.1 kmh WNW 12.1 mph19.5 kmh 29.61 in1002.7 mb 0.01 in0.3 mm 0.00 in0.0 mm 0.09 in2.3 mm
03:45 AM 37.8°F3.2°C 35.7°F2.1°C 92% 3.1 mph W5.0 kmh W 12.1 mph19.5 kmh 29.61 in1002.7 mb 0.01 in0.3 mm 0.00 in0.0 mm 0.09 in2.3 mm
03:50 AM 37.8°F3.2°C 35.7°F2.1°C 92% 5.4 mph W8.7 kmh W 11.4 mph18.3 kmh 29.61 in1002.7 mb 0.01 in0.3 mm 0.00 in0.0 mm 0.09 in2.3 mm
03:55 AM 37.8°F3.2°C 35.9°F2.2°C 93% 7.6 mph WNW12.2 kmh WNW 13.0 mph20.9 kmh 29.61 in1002.7 mb 0.01 in0.3 mm 0.00 in0.0 mm 0.09 in2.3 mm
04:00 AM 38.1°F3.4°C 36.3°F2.4°C 93% 3.8 mph NW6.1 kmh NW 15.2 mph24.5 kmh 29.61 in1002.7 mb 0.01 in0.3 mm 0.00 in0.0 mm 0.09 in2.3 mm
04:05 AM 38.3°F3.5°C 36.5°F2.5°C 93% 5.4 mph NW8.7 kmh NW 15.2 mph24.5 kmh 29.61 in1002.7 mb 0.01 in0.3 mm 0.00 in0.0 mm 0.09 in2.3 mm
04:10 AM 38.3°F3.5°C 36.5°F2.5°C 93% 4.5 mph W7.2 kmh W 11.4 mph18.3 kmh 29.61 in1002.7 mb 0.01 in0.3 mm 0.00 in0.0 mm 0.09 in2.3 mm
04:15 AM 38.3°F3.5°C 36.2°F2.3°C 92% 4.5 mph WSW7.2 kmh WSW 11.4 mph18.3 kmh 29.61 in1002.7 mb 0.00 in0.0 mm 0.00 in0.0 mm 0.09 in2.3 mm
04:20 AM 38.3°F3.5°C 36.2°F2.3°C 92% 3.1 mph WSW5.0 kmh WSW 11.4 mph18.3 kmh 29.61 in1002.7 mb 0.00 in0.0 mm 0.00 in0.0 mm 0.09 in2.3 mm
04:25 AM 38.1°F3.4°C 36.0°F2.2°C 92% 4.5 mph NW7.2 kmh NW 9.8 mph15.8 kmh 29.61 in1002.7 mb 0.00 in0.0 mm 0.00 in0.0 mm 0.09 in2.3 mm
04:30 AM 38.1°F3.4°C 36.0°F2.2°C 92% 4.5 mph WNW7.2 kmh WNW 9.8 mph15.8 kmh 29.61 in1002.7 mb 0.00 in0.0 mm 0.00 in0.0 mm 0.09 in2.3 mm
04:35 AM 38.1°F3.4°C 36.0°F2.2°C 92% 3.1 mph WNW5.0 kmh WNW 9.8 mph15.8 kmh 29.62 in1003.0 mb 0.00 in0.0 mm 0.00 in0.0 mm 0.09 in2.3 mm
04:40 AM 38.3°F3.5°C 36.2°F2.3°C 92% 2.2 mph W3.5 kmh W 8.3 mph13.4 kmh 29.62 in1003.0 mb 0.00 in0.0 mm 0.00 in0.0 mm 0.09 in2.3 mm
04:45 AM 38.3°F3.5°C 36.5°F2.5°C 93% 0.7 mph W1.1 kmh W 8.3 mph13.4 kmh 29.62 in1003.0 mb 0.00 in0.0 mm 0.00 in0.0 mm 0.09 in2.3 mm
04:50 AM 38.3°F3.5°C 36.5°F2.5°C 93% 5.4 mph WNW8.7 kmh WNW 8.3 mph13.4 kmh 29.61 in1002.7 mb 0.00 in0.0 mm 0.00 in0.0 mm 0.09 in2.3 mm
04:55 AM 38.5°F3.6°C 36.6°F2.6°C 93% 6.9 mph W11.1 kmh W 9.8 mph15.8 kmh 29.62 in1003.0 mb 0.00 in0.0 mm 0.00 in0.0 mm 0.09 in2.3 mm
05:00 AM 38.7°F3.7°C 36.8°F2.7°C 93% 4.5 mph WSW7.2 kmh WSW 9.8 mph15.8 kmh 29.62 in1003.0 mb 0.00 in0.0 mm 0.00 in0.0 mm 0.09 in2.3 mm
05:05 AM 38.7°F3.7°C 36.8°F2.7°C 93% 3.1 mph W5.0 kmh W 10.7 mph17.2 kmh 29.62 in1003.0 mb 0.01 in0.3 mm 0.12 in3.0 mm 0.11 in2.8 mm
05:10 AM 38.7°F3.7°C 36.8°F2.7°C 93% 1.6 mph W2.6 kmh W 10.7 mph17.2 kmh 29.61 in1002.7 mb 0.01 in0.3 mm 0.00 in0.0 mm 0.11 in2.8 mm
05:15 AM 38.7°F3.7°C 36.8°F2.7°C 93% 3.1 mph WSW5.0 kmh WSW 7.6 mph12.2 kmh 29.62 in1003.0 mb 0.01 in0.3 mm 0.00 in0.0 mm 0.11 in2.8 mm
05:20 AM 38.7°F3.7°C 36.5°F2.5°C 92% 5.4 mph W8.7 kmh W 9.2 mph14.8 kmh 29.61 in1002.7 mb 0.01 in0.3 mm 0.00 in0.0 mm 0.11 in2.8 mm
05:25 AM 38.7°F3.7°C 36.5°F2.5°C 92% 6.9 mph W11.1 kmh W 9.8 mph15.8 kmh 29.61 in1002.7 mb 0.01 in0.3 mm 0.00 in0.0 mm 0.11 in2.8 mm
05:30 AM 38.7°F3.7°C 36.5°F2.5°C 92% 5.4 mph WSW8.7 kmh WSW 9.8 mph15.8 kmh 29.60 in1002.4 mb 0.02 in0.5 mm 0.12 in3.0 mm 0.12 in3.0 mm
05:35 AM 38.7°F3.7°C 36.5°F2.5°C 92% 4.5 mph W7.2 kmh W 10.7 mph17.2 kmh 29.61 in1002.7 mb 0.02 in0.5 mm 0.00 in0.0 mm 0.12 in3.0 mm
05:40 AM 38.5°F3.6°C 36.1°F2.3°C 91% 4.5 mph WNW7.2 kmh WNW 13.0 mph20.9 kmh 29.61 in1002.7 mb 0.02 in0.5 mm 0.00 in0.0 mm 0.12 in3.0 mm
05:45 AM 38.3°F3.5°C 35.9°F2.2°C 91% 7.6 mph WNW12.2 kmh WNW 13.0 mph20.9 kmh 29.61 in1002.7 mb 0.02 in0.5 mm 0.00 in0.0 mm 0.12 in3.0 mm
05:50 AM 38.1°F3.4°C 35.7°F2.1°C 91% 6.0 mph W9.7 kmh W 15.9 mph25.6 kmh 29.62 in1003.0 mb 0.02 in0.5 mm 0.00 in0.0 mm 0.12 in3.0 mm
05:55 AM 38.1°F3.4°C 35.7°F2.1°C 91% 3.8 mph WNW6.1 kmh WNW 15.9 mph25.6 kmh 29.62 in1003.0 mb 0.02 in0.5 mm 0.00 in0.0 mm 0.12 in3.0 mm
06:00 AM 37.9°F3.3°C 35.6°F2.0°C 91% 4.5 mph W7.2 kmh W 10.7 mph17.2 kmh 29.62 in1003.0 mb 0.02 in0.5 mm 0.00 in0.0 mm 0.12 in3.0 mm
06:05 AM 37.9°F3.3°C 35.6°F2.0°C 91% 5.4 mph W8.7 kmh W 9.2 mph14.8 kmh 29.62 in1003.0 mb 0.01 in0.3 mm 0.00 in0.0 mm 0.12 in3.0 mm
06:10 AM 37.9°F3.3°C 35.6°F2.0°C 91% 4.5 mph W7.2 kmh W 9.2 mph14.8 kmh 29.62 in1003.0 mb 0.01 in0.3 mm 0.00 in0.0 mm 0.12 in3.0 mm
06:15 AM 38.1°F3.4°C 36.0°F2.2°C 92% 3.1 mph W5.0 kmh W 10.7 mph17.2 kmh 29.63 in1003.4 mb 0.01 in0.3 mm 0.00 in0.0 mm 0.12 in3.0 mm
06:20 AM 38.3°F3.5°C 36.2°F2.3°C 92% 7.6 mph WNW12.2 kmh WNW 10.7 mph17.2 kmh 29.62 in1003.0 mb 0.01 in0.3 mm 0.00 in0.0 mm 0.12 in3.0 mm
06:25 AM 38.5°F3.6°C 36.4°F2.4°C 92% 3.8 mph WNW6.1 kmh WNW 11.4 mph18.3 kmh 29.62 in1003.0 mb 0.01 in0.3 mm 0.00 in0.0 mm 0.12 in3.0 mm
06:30 AM 38.5°F3.6°C 36.4°F2.4°C 92% 3.1 mph W5.0 kmh W 11.4 mph18.3 kmh 29.62 in1003.0 mb 0.00 in0.0 mm 0.00 in0.0 mm 0.12 in3.0 mm
06:35 AM 38.5°F3.6°C 36.4°F2.4°C 92% 3.1 mph W5.0 kmh W 9.2 mph14.8 kmh 29.62 in1003.0 mb 0.00 in0.0 mm 0.00 in0.0 mm 0.12 in3.0 mm
06:40 AM 38.3°F3.5°C 36.2°F2.3°C 92% 4.5 mph WSW7.2 kmh WSW 9.2 mph14.8 kmh 29.62 in1003.0 mb 0.00 in0.0 mm 0.00 in0.0 mm 0.12 in3.0 mm
06:45 AM 38.3°F3.5°C 36.2°F2.3°C 92% 5.4 mph W8.7 kmh W 12.1 mph19.5 kmh 29.62 in1003.0 mb 0.00 in0.0 mm 0.00 in0.0 mm 0.12 in3.0 mm
06:50 AM 38.1°F3.4°C 36.0°F2.2°C 92% 7.6 mph WNW12.2 kmh WNW 12.1 mph19.5 kmh 29.62 in1003.0 mb 0.01 in0.3 mm 0.12 in3.0 mm 0.13 in3.3 mm
06:55 AM 37.9°F3.3°C 35.8°F2.1°C 92% 5.4 mph W8.7 kmh W 11.4 mph18.3 kmh 29.62 in1003.0 mb 0.01 in0.3 mm 0.00 in0.0 mm 0.13 in3.3 mm
07:00 AM 37.9°F3.3°C 35.8°F2.1°C 92% 6.0 mph WNW9.7 kmh WNW 13.0 mph20.9 kmh 29.62 in1003.0 mb 0.01 in0.3 mm 0.00 in0.0 mm 0.13 in3.3 mm
07:05 AM 37.9°F3.3°C 35.8°F2.1°C 92% 3.8 mph NW6.1 kmh NW 13.0 mph20.9 kmh 29.62 in1003.0 mb 0.01 in0.3 mm 0.00 in0.0 mm 0.13 in3.3 mm
07:10 AM 38.1°F3.4°C 35.7°F2.1°C 91% 3.1 mph WNW5.0 kmh WNW 12.1 mph19.5 kmh 29.62 in1003.0 mb 0.01 in0.3 mm 0.00 in0.0 mm 0.13 in3.3 mm
07:15 AM 38.1°F3.4°C 35.7°F2.1°C 91% 3.1 mph W5.0 kmh W 12.1 mph19.5 kmh 29.62 in1003.0 mb 0.01 in0.3 mm 0.00 in0.0 mm 0.13 in3.3 mm
07:20 AM 38.1°F3.4°C 35.7°F2.1°C 91% 3.1 mph WSW5.0 kmh WSW 8.3 mph13.4 kmh 29.63 in1003.4 mb 0.01 in0.3 mm 0.00 in0.0 mm 0.13 in3.3 mm
07:25 AM 38.1°F3.4°C 35.7°F2.1°C 91% 4.5 mph W7.2 kmh W 9.8 mph15.8 kmh 29.63 in1003.4 mb 0.01 in0.3 mm 0.00 in0.0 mm 0.13 in3.3 mm
07:30 AM 38.1°F3.4°C 35.7°F2.1°C 91% 4.5 mph W7.2 kmh W 12.1 mph19.5 kmh 29.64 in1003.7 mb 0.01 in0.3 mm 0.00 in0.0 mm 0.13 in3.3 mm
07:35 AM 38.1°F3.4°C 35.7°F2.1°C 91% 5.4 mph W8.7 kmh W 12.1 mph19.5 kmh 29.64 in1003.7 mb 0.01 in0.3 mm 0.00 in0.0 mm 0.13 in3.3 mm
07:40 AM 38.5°F3.6°C 36.1°F2.3°C 91% 6.9 mph WSW11.1 kmh WSW 10.7 mph17.2 kmh 29.64 in1003.7 mb 0.01 in0.3 mm 0.00 in0.0 mm 0.13 in3.3 mm
07:45 AM 38.7°F3.7°C 36.0°F2.2°C 90% 4.5 mph WSW7.2 kmh WSW 12.1 mph19.5 kmh 29.64 in1003.7 mb 0.01 in0.3 mm 0.00 in0.0 mm 0.13 in3.3 mm
07:50 AM 38.8°F3.8°C 36.2°F2.3°C 90% 5.4 mph WSW8.7 kmh WSW 12.1 mph19.5 kmh 29.64 in1003.7 mb 0.00 in0.0 mm 0.00 in0.0 mm 0.13 in3.3 mm
07:55 AM 38.8°F3.8°C 36.2°F2.3°C 90% 5.4 mph WSW8.7 kmh WSW 9.2 mph14.8 kmh 29.64 in1003.7 mb 0.00 in0.0 mm 0.00 in0.0 mm 0.13 in3.3 mm
08:00 AM 38.7°F3.7°C 36.0°F2.2°C 90% 3.8 mph WSW6.1 kmh WSW 9.8 mph15.8 kmh 29.64 in1003.7 mb 0.00 in0.0 mm 0.00 in0.0 mm 0.13 in3.3 mm
08:05 AM 38.5°F3.6°C 35.5°F1.9°C 89% 3.8 mph W6.1 kmh W 9.8 mph15.8 kmh 29.64 in1003.7 mb 0.00 in0.0 mm 0.00 in0.0 mm 0.13 in3.3 mm
08:10 AM 38.3°F3.5°C 35.4°F1.9°C 89% 3.8 mph W6.1 kmh W 9.2 mph14.8 kmh 29.64 in1003.7 mb 0.00 in0.0 mm 0.00 in0.0 mm 0.13 in3.3 mm
08:15 AM 38.3°F3.5°C 35.4°F1.9°C 89% 3.1 mph W5.0 kmh W 9.2 mph14.8 kmh 29.64 in1003.7 mb 0.00 in0.0 mm 0.00 in0.0 mm 0.13 in3.3 mm
08:20 AM 38.1°F3.4°C 35.2°F1.8°C 89% 4.5 mph W7.2 kmh W 9.2 mph14.8 kmh 29.64 in1003.7 mb 0.00 in0.0 mm 0.00 in0.0 mm 0.13 in3.3 mm
08:25 AM 38.1°F3.4°C 35.2°F1.8°C 89% 3.1 mph WNW5.0 kmh WNW 9.2 mph14.8 kmh 29.64 in1003.7 mb 0.00 in0.0 mm 0.00 in0.0 mm 0.13 in3.3 mm
08:30 AM 38.1°F3.4°C 34.9°F1.6°C 88% 3.8 mph WNW6.1 kmh WNW 7.6 mph12.2 kmh 29.63 in1003.4 mb 0.00 in0.0 mm 0.00 in0.0 mm 0.13 in3.3 mm
08:35 AM 37.9°F3.3°C 34.7°F1.5°C 88% 3.1 mph WNW5.0 kmh WNW 6.0 mph9.7 kmh 29.64 in1003.7 mb 0.00 in0.0 mm 0.00 in0.0 mm 0.13 in3.3 mm
08:40 AM 37.8°F3.2°C 34.5°F1.4°C 88% 3.1 mph WNW5.0 kmh WNW 6.0 mph9.7 kmh 29.64 in1003.7 mb 0.00 in0.0 mm 0.00 in0.0 mm 0.13 in3.3 mm
08:45 AM 37.6°F3.1°C 34.4°F1.3°C 88% 2.2 mph W3.5 kmh W 6.0 mph9.7 kmh 29.64 in1003.7 mb 0.00 in0.0 mm 0.00 in0.0 mm 0.13 in3.3 mm
08:50 AM 37.4°F3.0°C 34.2°F1.2°C 88% 2.2 mph WNW3.5 kmh WNW 8.3 mph13.4 kmh 29.64 in1003.7 mb 0.00 in0.0 mm 0.00 in0.0 mm 0.13 in3.3 mm
08:55 AM 37.6°F3.1°C 34.4°F1.3°C 88% 6.0 mph WNW9.7 kmh WNW 12.1 mph19.5 kmh 29.64 in1003.7 mb 0.00 in0.0 mm 0.00 in0.0 mm 0.13 in3.3 mm
09:00 AM 37.9°F3.3°C 34.7°F1.5°C 88% 7.6 mph W12.2 kmh W 14.5 mph23.3 kmh 29.64 in1003.7 mb 0.00 in0.0 mm 0.00 in0.0 mm 0.13 in3.3 mm
09:05 AM 38.3°F3.5°C 35.1°F1.7°C 88% 6.9 mph W11.1 kmh W 14.5 mph23.3 kmh 29.65 in1004.1 mb 0.00 in0.0 mm 0.00 in0.0 mm 0.13 in3.3 mm
09:10 AM 38.7°F3.7°C 35.4°F1.9°C 88% 8.3 mph W13.4 kmh W 13.6 mph21.9 kmh 29.65 in1004.1 mb 0.00 in0.0 mm 0.00 in0.0 mm 0.13 in3.3 mm
09:15 AM 39.0°F3.9°C 35.5°F1.9°C 87% 8.3 mph W13.4 kmh W 14.5 mph23.3 kmh 29.65 in1004.1 mb 0.00 in0.0 mm 0.00 in0.0 mm 0.13 in3.3 mm
09:20 AM 39.4°F4.1°C 35.3°F1.8°C 85% 6.0 mph NW9.7 kmh NW 16.8 mph27.0 kmh 29.64 in1003.7 mb 0.00 in0.0 mm 0.00 in0.0 mm 0.13 in3.3 mm
09:25 AM 39.6°F4.2°C 35.4°F1.9°C 85% 11.4 mph NW18.3 kmh NW 16.8 mph27.0 kmh 29.65 in1004.1 mb 0.00 in0.0 mm 0.00 in0.0 mm 0.13 in3.3 mm
09:30 AM 40.1°F4.5°C 35.7°F2.1°C 84% 7.6 mph WNW12.2 kmh WNW 15.9 mph25.6 kmh 29.65 in1004.1 mb 0.00 in0.0 mm 0.00 in0.0 mm 0.13 in3.3 mm
09:35 AM 40.3°F4.6°C 35.8°F2.1°C 84% 12.1 mph WNW19.5 kmh WNW 18.3 mph29.5 kmh 29.65 in1004.1 mb 0.00 in0.0 mm 0.00 in0.0 mm 0.13 in3.3 mm
09:40 AM 40.6°F4.8°C 35.6°F2.0°C 82% 13.0 mph NW20.9 kmh NW 22.1 mph35.6 kmh 29.65 in1004.1 mb 0.00 in0.0 mm 0.00 in0.0 mm 0.13 in3.3 mm
09:45 AM 40.8°F4.9°C 35.5°F1.9°C 81% 6.0 mph WNW9.7 kmh WNW 22.1 mph35.6 kmh 29.65 in1004.1 mb 0.00 in0.0 mm 0.00 in0.0 mm 0.13 in3.3 mm
09:50 AM 41.0°F5.0°C 35.0°F1.7°C 79% 4.5 mph NW7.2 kmh NW 22.1 mph35.6 kmh 29.65 in1004.1 mb 0.00 in0.0 mm 0.00 in0.0 mm 0.13 in3.3 mm
09:55 AM 41.0°F5.0°C 35.0°F1.7°C 79% 6.9 mph NW11.1 kmh NW 13.6 mph21.9 kmh 29.65 in1004.1 mb 0.00 in0.0 mm 0.00 in0.0 mm 0.13 in3.3 mm
10:00 AM 41.2°F5.1°C 34.9°F1.6°C 78% 6.0 mph WNW9.7 kmh WNW 13.0 mph20.9 kmh 29.65 in1004.1 mb 0.00 in0.0 mm 0.00 in0.0 mm 0.13 in3.3 mm
10:05 AM 41.2°F5.1°C 34.9°F1.6°C 78% 6.0 mph NW9.7 kmh NW 11.4 mph18.3 kmh 29.66 in1004.4 mb 0.00 in0.0 mm 0.00 in0.0 mm 0.13 in3.3 mm
10:10 AM 41.2°F5.1°C 34.5°F1.4°C 77% 6.0 mph NW9.7 kmh NW 15.2 mph24.5 kmh 29.66 in1004.4 mb 0.00 in0.0 mm 0.00 in0.0 mm 0.13 in3.3 mm
10:15 AM 41.0°F5.0°C 34.4°F1.3°C 77% 9.8 mph WNW15.8 kmh WNW 19.0 mph30.6 kmh 29.66 in1004.4 mb 0.00 in0.0 mm 0.00 in0.0 mm 0.13 in3.3 mm
10:20 AM 41.2°F5.1°C 34.9°F1.6°C 78% 8.3 mph W13.4 kmh W 19.0 mph30.6 kmh 29.66 in1004.4 mb 0.00 in0.0 mm 0.00 in0.0 mm 0.13 in3.3 mm
10:25 AM 41.4°F5.2°C 35.0°F1.7°C 78% 6.0 mph W9.7 kmh W 16.8 mph27.0 kmh 29.66 in1004.4 mb 0.00 in0.0 mm 0.00 in0.0 mm 0.13 in3.3 mm
10:30 AM 41.2°F5.1°C 34.9°F1.6°C 78% 9.2 mph W14.8 kmh W 16.8 mph27.0 kmh 29.67 in1004.7 mb 0.00 in0.0 mm 0.00 in0.0 mm 0.13 in3.3 mm
10:35 AM 41.2°F5.1°C 34.9°F1.6°C 78% 1.6 mph WSW2.6 kmh WSW 13.0 mph20.9 kmh 29.66 in1004.4 mb 0.00 in0.0 mm 0.00 in0.0 mm 0.13 in3.3 mm
10:40 AM 41.2°F5.1°C 34.9°F1.6°C 78% 6.0 mph WSW9.7 kmh WSW 13.0 mph20.9 kmh 29.67 in1004.7 mb 0.00 in0.0 mm 0.00 in0.0 mm 0.13 in3.3 mm
10:45 AM 41.2°F5.1°C 34.9°F1.6°C 78% 3.8 mph SW6.1 kmh SW 12.1 mph19.5 kmh 29.66 in1004.4 mb 0.00 in0.0 mm 0.00 in0.0 mm 0.13 in3.3 mm
10:50 AM 41.2°F5.1°C 35.2°F1.8°C 79% 5.4 mph SSW8.7 kmh SSW 10.7 mph17.2 kmh 29.66 in1004.4 mb 0.00 in0.0 mm 0.00 in0.0 mm 0.13 in3.3 mm
10:55 AM 41.4°F5.2°C 35.7°F2.1°C 80% 4.5 mph WSW7.2 kmh WSW 9.8 mph15.8 kmh 29.66 in1004.4 mb 0.00 in0.0 mm 0.00 in0.0 mm 0.13 in3.3 mm
11:00 AM 41.5°F5.3°C 35.8°F2.1°C 80% 6.0 mph W9.7 kmh W 11.4 mph18.3 kmh 29.66 in1004.4 mb 0.00 in0.0 mm 0.00 in0.0 mm 0.13 in3.3 mm
11:05 AM 41.7°F5.4°C 36.0°F2.2°C 80% 7.6 mph W12.2 kmh W 11.4 mph18.3 kmh 29.66 in1004.4 mb 0.00 in0.0 mm 0.00 in0.0 mm 0.13 in3.3 mm
11:10 AM 41.7°F5.4°C 35.7°F2.1°C 79% 6.9 mph WSW11.1 kmh WSW 15.2 mph24.5 kmh 29.66 in1004.4 mb 0.00 in0.0 mm 0.00 in0.0 mm 0.13 in3.3 mm
11:15 AM 41.7°F5.4°C 35.7°F2.1°C 79% 6.9 mph W11.1 kmh W 15.9 mph25.6 kmh 29.66 in1004.4 mb 0.00 in0.0 mm 0.00 in0.0 mm 0.13 in3.3 mm
11:20 AM 41.9°F5.5°C 35.6°F2.0°C 78% 8.3 mph W13.4 kmh W 15.9 mph25.6 kmh 29.67 in1004.7 mb 0.00 in0.0 mm 0.00 in0.0 mm 0.13 in3.3 mm
11:25 AM 42.3°F5.7°C 35.9°F2.2°C 78% 8.3 mph WSW13.4 kmh WSW 15.2 mph24.5 kmh 29.67 in1004.7 mb 0.00 in0.0 mm 0.00 in0.0 mm 0.13 in3.3 mm
11:30 AM 43.0°F6.1°C 36.3°F2.4°C 77% 8.3 mph W13.4 kmh W 19.0 mph30.6 kmh 29.67 in1004.7 mb 0.00 in0.0 mm 0.00 in0.0 mm 0.13 in3.3 mm
11:35 AM 43.5°F6.4°C 36.8°F2.7°C 77% 5.4 mph WSW8.7 kmh WSW 19.0 mph30.6 kmh 29.67 in1004.7 mb 0.00 in0.0 mm 0.00 in0.0 mm 0.13 in3.3 mm
11:40 AM 43.5°F6.4°C 36.8°F2.7°C 77% 8.3 mph WSW13.4 kmh WSW 15.2 mph24.5 kmh 29.67 in1004.7 mb 0.00 in0.0 mm 0.00 in0.0 mm 0.13 in3.3 mm
11:45 AM 43.2°F6.2°C 36.1°F2.3°C 76% 11.4 mph WNW18.3 kmh WNW 20.6 mph33.2 kmh 29.67 in1004.7 mb 0.00 in0.0 mm 0.00 in0.0 mm 0.13 in3.3 mm
11:50 AM 43.0°F6.1°C 35.9°F2.2°C 76% 13.0 mph WNW20.9 kmh WNW 23.5 mph37.8 kmh 29.68 in1005.1 mb 0.00 in0.0 mm 0.00 in0.0 mm 0.13 in3.3 mm
11:55 AM 42.4°F5.8°C 35.8°F2.1°C 77% 6.9 mph WNW11.1 kmh WNW 23.5 mph37.8 kmh 29.68 in1005.1 mb 0.00 in0.0 mm 0.00 in0.0 mm 0.13 in3.3 mm
12:00 PM 42.4°F5.8°C 36.1°F2.3°C 78% 7.6 mph WNW12.2 kmh WNW 18.3 mph29.5 kmh 29.68 in1005.1 mb 0.00 in0.0 mm 0.00 in0.0 mm 0.13 in3.3 mm
12:05 PM 42.4°F5.8°C 36.1°F2.3°C 78% 7.6 mph WSW12.2 kmh WSW 13.0 mph20.9 kmh 29.68 in1005.1 mb 0.00 in0.0 mm 0.00 in0.0 mm 0.13 in3.3 mm
12:10 PM 42.4°F5.8°C 36.4°F2.4°C 79% 3.8 mph WSW6.1 kmh WSW 13.0 mph20.9 kmh 29.68 in1005.1 mb 0.00 in0.0 mm 0.00 in0.0 mm 0.13 in3.3 mm
12:15 PM 42.4°F5.8°C 36.7°F2.6°C 80% 7.6 mph W12.2 kmh W 13.0 mph20.9 kmh 29.68 in1005.1 mb 0.00 in0.0 mm 0.00 in0.0 mm 0.13 in3.3 mm
12:20 PM 42.4°F5.8°C 36.4°F2.4°C 79% 9.8 mph W15.8 kmh W 13.6 mph21.9 kmh 29.68 in1005.1 mb 0.00 in0.0 mm 0.00 in0.0 mm 0.13 in3.3 mm
12:25 PM 42.4°F5.8°C 36.4°F2.4°C 79% 7.6 mph W12.2 kmh W 13.6 mph21.9 kmh 29.67 in1004.7 mb 0.00 in0.0 mm 0.00 in0.0 mm 0.13 in3.3 mm
12:30 PM 42.8°F6.0°C 36.4°F2.4°C 78% 6.0 mph WSW9.7 kmh WSW 13.6 mph21.9 kmh 29.67 in1004.7 mb 0.00 in0.0 mm 0.00 in0.0 mm 0.13 in3.3 mm
12:35 PM 43.0°F6.1°C 36.6°F2.6°C 78% 4.5 mph W7.2 kmh W 12.1 mph19.5 kmh 29.67 in1004.7 mb 0.00 in0.0 mm 0.00 in0.0 mm 0.13 in3.3 mm
12:40 PM 43.2°F6.2°C 36.4°F2.4°C 77% 8.3 mph NW13.4 kmh NW 13.0 mph20.9 kmh 29.67 in1004.7 mb 0.00 in0.0 mm 0.00 in0.0 mm 0.13 in3.3 mm
12:45 PM 43.2°F6.2°C 36.4°F2.4°C 77% 9.2 mph NW14.8 kmh NW 14.5 mph23.3 kmh 29.67 in1004.7 mb 0.00 in0.0 mm 0.00 in0.0 mm 0.13 in3.3 mm
12:50 PM 43.2°F6.2°C 36.4°F2.4°C 77% 8.3 mph NW13.4 kmh NW 14.5 mph23.3 kmh 29.67 in1004.7 mb 0.00 in0.0 mm 0.00 in0.0 mm 0.13 in3.3 mm
12:55 PM 43.0°F6.1°C 36.3°F2.4°C 77% 10.7 mph NW17.2 kmh NW 15.9 mph25.6 kmh 29.67 in1004.7 mb 0.00 in0.0 mm 0.00 in0.0 mm 0.13 in3.3 mm
01:00 PM 43.0°F6.1°C 36.3°F2.4°C 77% 9.8 mph NW15.8 kmh NW 15.9 mph25.6 kmh 29.67 in1004.7 mb 0.00 in0.0 mm 0.00 in0.0 mm 0.13 in3.3 mm
01:05 PM 43.2°F6.2°C 36.4°F2.4°C 77% 9.8 mph NW15.8 kmh NW 15.9 mph25.6 kmh 29.67 in1004.7 mb 0.00 in0.0 mm 0.00 in0.0 mm 0.13 in3.3 mm
01:10 PM 43.2°F6.2°C 36.4°F2.4°C 77% 12.1 mph WNW19.5 kmh WNW 15.9 mph25.6 kmh 29.67 in1004.7 mb 0.00 in0.0 mm 0.00 in0.0 mm 0.13 in3.3 mm
01:15 PM 43.0°F6.1°C 35.9°F2.2°C 76% 15.2 mph NW24.5 kmh NW 20.6 mph33.2 kmh 29.66 in1004.4 mb 0.00 in0.0 mm 0.00 in0.0 mm 0.13 in3.3 mm
01:20 PM 43.0°F6.1°C 35.9°F2.2°C 76% 4.5 mph WNW7.2 kmh WNW 20.6 mph33.2 kmh 29.66 in1004.4 mb 0.00 in0.0 mm 0.00 in0.0 mm 0.13 in3.3 mm
01:25 PM 43.0°F6.1°C 35.9°F2.2°C 76% 9.8 mph WNW15.8 kmh WNW 15.2 mph24.5 kmh 29.65 in1004.1 mb 0.00 in0.0 mm 0.00 in0.0 mm 0.13 in3.3 mm
01:30 PM 43.0°F6.1°C 35.9°F2.2°C 76% 10.7 mph WNW17.2 kmh WNW 19.0 mph30.6 kmh 29.65 in1004.1 mb 0.00 in0.0 mm 0.00 in0.0 mm 0.13 in3.3 mm
01:35 PM 43.2°F6.2°C 36.1°F2.3°C 76% 9.8 mph W15.8 kmh W 19.0 mph30.6 kmh 29.65 in1004.1 mb 0.00 in0.0 mm 0.00 in0.0 mm 0.13 in3.3 mm
01:40 PM 43.2°F6.2°C 35.8°F2.1°C 75% 9.2 mph WNW14.8 kmh WNW 19.0 mph30.6 kmh 29.65 in1004.1 mb 0.00 in0.0 mm 0.00 in0.0 mm 0.13 in3.3 mm
01:45 PM 43.2°F6.2°C 36.1°F2.3°C 76% 9.2 mph NW14.8 kmh NW 19.0 mph30.6 kmh 29.65 in1004.1 mb 0.00 in0.0 mm 0.00 in0.0 mm 0.13 in3.3 mm
01:50 PM 42.8°F6.0°C 35.8°F2.1°C 76% 9.2 mph NW14.8 kmh NW 15.2 mph24.5 kmh 29.65 in1004.1 mb 0.00 in0.0 mm 0.00 in0.0 mm 0.13 in3.3 mm
01:55 PM 42.8°F6.0°C 36.1°F2.3°C 77% 13.0 mph W20.9 kmh W 15.9 mph25.6 kmh 29.66 in1004.4 mb 0.00 in0.0 mm 0.00 in0.0 mm 0.13 in3.3 mm
02:00 PM 43.2°F6.2°C 36.4°F2.4°C 77% 10.7 mph W17.2 kmh W 15.9 mph25.6 kmh 29.65 in1004.1 mb 0.00 in0.0 mm 0.00 in0.0 mm 0.13 in3.3 mm
02:05 PM 44.1°F6.7°C 37.3°F2.9°C 77% 9.2 mph WNW14.8 kmh WNW 15.9 mph25.6 kmh 29.65 in1004.1 mb 0.00 in0.0 mm 0.00 in0.0 mm 0.13 in3.3 mm
02:10 PM 44.8°F7.1°C 37.3°F2.9°C 75% 10.7 mph WNW17.2 kmh WNW 16.8 mph27.0 kmh 29.65 in1004.1 mb 0.00 in0.0 mm 0.00 in0.0 mm 0.13 in3.3 mm
02:15 PM 45.3°F7.4°C 37.5°F3.1°C 74% 9.2 mph NW14.8 kmh NW 19.7 mph31.7 kmh 29.65 in1004.1 mb 0.00 in0.0 mm 0.00 in0.0 mm 0.13 in3.3 mm
02:20 PM 45.7°F7.6°C 37.5°F3.1°C 73% 6.0 mph WNW9.7 kmh WNW 19.7 mph31.7 kmh 29.65 in1004.1 mb 0.00 in0.0 mm 0.00 in0.0 mm 0.13 in3.3 mm
02:25 PM 46.2°F7.9°C 37.7°F3.2°C 72% 11.4 mph NW18.3 kmh NW 18.3 mph29.5 kmh 29.65 in1004.1 mb 0.00 in0.0 mm 0.00 in0.0 mm 0.13 in3.3 mm
02:30 PM 45.7°F7.6°C 36.8°F2.7°C 71% 9.2 mph WNW14.8 kmh WNW 18.3 mph29.5 kmh 29.65 in1004.1 mb 0.00 in0.0 mm 0.00 in0.0 mm 0.13 in3.3 mm
02:35 PM 45.3°F7.4°C 36.1°F2.3°C 70% 10.7 mph WNW17.2 kmh WNW 18.3 mph29.5 kmh 29.65 in1004.1 mb 0.00 in0.0 mm 0.00 in0.0 mm 0.13 in3.3 mm
02:40 PM 45.3°F7.4°C 36.5°F2.5°C 71% 8.3 mph WNW13.4 kmh WNW 13.6 mph21.9 kmh 29.64 in1003.7 mb 0.00 in0.0 mm 0.00 in0.0 mm 0.13 in3.3 mm
02:45 PM 45.5°F7.5°C 36.7°F2.6°C 71% 6.9 mph NW11.1 kmh NW 13.0 mph20.9 kmh 29.65 in1004.1 mb 0.00 in0.0 mm 0.00 in0.0 mm 0.13 in3.3 mm
02:50 PM 46.2°F7.9°C 37.3°F2.9°C 71% 6.0 mph WNW9.7 kmh WNW 15.2 mph24.5 kmh 29.64 in1003.7 mb 0.00 in0.0 mm 0.00 in0.0 mm 0.13 in3.3 mm
02:55 PM 46.9°F8.3°C 37.7°F3.2°C 70% 6.0 mph WNW9.7 kmh WNW 15.2 mph24.5 kmh 29.64 in1003.7 mb 0.00 in0.0 mm 0.00 in0.0 mm 0.13 in3.3 mm
03:00 PM 47.7°F8.7°C 38.0°F3.3°C 69% 7.6 mph W12.2 kmh W 13.6 mph21.9 kmh 29.64 in1003.7 mb 0.00 in0.0 mm 0.00 in0.0 mm 0.13 in3.3 mm
03:05 PM 47.8°F8.8°C 37.4°F3.0°C 67% 8.3 mph W13.4 kmh W 13.6 mph21.9 kmh 29.64 in1003.7 mb 0.00 in0.0 mm 0.00 in0.0 mm 0.13 in3.3 mm
03:10 PM 47.8°F8.8°C 37.4°F3.0°C 67% 10.7 mph WNW17.2 kmh WNW 20.6 mph33.2 kmh 29.64 in1003.7 mb 0.00 in0.0 mm 0.00 in0.0 mm 0.13 in3.3 mm
03:15 PM 47.1°F8.4°C 36.7°F2.6°C 67% 10.7 mph NW17.2 kmh NW 20.6 mph33.2 kmh 29.64 in1003.7 mb 0.00 in0.0 mm 0.00 in0.0 mm 0.13 in3.3 mm
03:20 PM 46.6°F8.1°C 36.6°F2.6°C 68% 9.8 mph NW15.8 kmh NW 24.4 mph39.3 kmh 29.64 in1003.7 mb 0.00 in0.0 mm 0.00 in0.0 mm 0.13 in3.3 mm
03:25 PM 46.0°F7.8°C 36.4°F2.4°C 69% 13.0 mph NW20.9 kmh NW 24.4 mph39.3 kmh 29.64 in1003.7 mb 0.00 in0.0 mm 0.00 in0.0 mm 0.13 in3.3 mm
03:30 PM 45.7°F7.6°C 36.5°F2.5°C 70% 6.0 mph NW9.7 kmh NW 16.8 mph27.0 kmh 29.64 in1003.7 mb 0.00 in0.0 mm 0.00 in0.0 mm 0.13 in3.3 mm
03:35 PM 45.3°F7.4°C 36.5°F2.5°C 71% 10.7 mph NW17.2 kmh NW 16.8 mph27.0 kmh 29.64 in1003.7 mb 0.00 in0.0 mm 0.00 in0.0 mm 0.13 in3.3 mm
03:40 PM 45.0°F7.2°C 36.1°F2.3°C 71% 8.3 mph WNW13.4 kmh WNW 16.8 mph27.0 kmh 29.64 in1003.7 mb 0.00 in0.0 mm 0.00 in0.0 mm 0.13 in3.3 mm
03:45 PM 45.0°F7.2°C 36.1°F2.3°C 71% 6.9 mph WNW11.1 kmh WNW 16.8 mph27.0 kmh 29.63 in1003.4 mb 0.00 in0.0 mm 0.00 in0.0 mm 0.13 in3.3 mm
03:50 PM 45.3°F7.4°C 36.5°F2.5°C 71% 6.0 mph WNW9.7 kmh WNW 16.8 mph27.0 kmh 29.64 in1003.7 mb 0.00 in0.0 mm 0.00 in0.0 mm 0.13 in3.3 mm
03:55 PM 45.7°F7.6°C 36.8°F2.7°C 71% 5.4 mph W8.7 kmh W 12.1 mph19.5 kmh 29.64 in1003.7 mb 0.00 in0.0 mm 0.00 in0.0 mm 0.13 in3.3 mm
04:00 PM 45.9°F7.7°C 37.0°F2.8°C 71% 7.6 mph W12.2 kmh W 14.5 mph23.3 kmh 29.64 in1003.7 mb 0.00 in0.0 mm 0.00 in0.0 mm 0.13 in3.3 mm
04:05 PM 45.9°F7.7°C 37.0°F2.8°C 71% 7.6 mph NW12.2 kmh NW 14.5 mph23.3 kmh 29.64 in1003.7 mb 0.00 in0.0 mm 0.00 in0.0 mm 0.13 in3.3 mm
04:10 PM 45.7°F7.6°C 36.5°F2.5°C 70% 8.3 mph NW13.4 kmh NW 15.2 mph24.5 kmh 29.64 in1003.7 mb 0.00 in0.0 mm 0.00 in0.0 mm 0.13 in3.3 mm
04:15 PM 45.5°F7.5°C 36.3°F2.4°C 70% 9.2 mph WNW14.8 kmh WNW 17.4 mph28.0 kmh 29.64 in1003.7 mb 0.00 in0.0 mm 0.00 in0.0 mm 0.13 in3.3 mm
04:20 PM 45.0°F7.2°C 35.8°F2.1°C 70% 7.6 mph W12.2 kmh W 17.4 mph28.0 kmh 29.64 in1003.7 mb 0.00 in0.0 mm 0.00 in0.0 mm 0.13 in3.3 mm
04:25 PM 44.8°F7.1°C 36.0°F2.2°C 71% 9.8 mph W15.8 kmh W 15.2 mph24.5 kmh 29.65 in1004.1 mb 0.00 in0.0 mm 0.00 in0.0 mm 0.13 in3.3 mm
04:30 PM 44.6°F7.0°C 35.8°F2.1°C 71% 9.2 mph WNW14.8 kmh WNW 15.9 mph25.6 kmh 29.65 in1004.1 mb 0.00 in0.0 mm 0.00 in0.0 mm 0.13 in3.3 mm
04:35 PM 44.2°F6.8°C 35.8°F2.1°C 72% 6.9 mph W11.1 kmh W 15.9 mph25.6 kmh 29.65 in1004.1 mb 0.00 in0.0 mm 0.00 in0.0 mm 0.13 in3.3 mm
04:40 PM 44.1°F6.7°C 36.0°F2.2°C 73% 6.9 mph W11.1 kmh W 15.9 mph25.6 kmh 29.65 in1004.1 mb 0.00 in0.0 mm 0.00 in0.0 mm 0.13 in3.3 mm
04:45 PM 43.7°F6.5°C 35.6°F2.0°C 73% 4.5 mph W7.2 kmh W 15.9 mph25.6 kmh 29.65 in1004.1 mb 0.00 in0.0 mm 0.00 in0.0 mm 0.13 in3.3 mm
04:50 PM 43.5°F6.4°C 36.1°F2.3°C 75% 6.0 mph WSW9.7 kmh WSW 15.9 mph25.6 kmh 29.65 in1004.1 mb 0.00 in0.0 mm 0.00 in0.0 mm 0.13 in3.3 mm
04:55 PM 43.2°F6.2°C 36.1°F2.3°C 76% 7.6 mph WNW12.2 kmh WNW 15.2 mph24.5 kmh 29.65 in1004.1 mb 0.00 in0.0 mm 0.00 in0.0 mm 0.13 in3.3 mm
05:00 PM 42.6°F5.9°C 36.6°F2.6°C 79% 8.3 mph NW13.4 kmh NW 15.2 mph24.5 kmh 29.66 in1004.4 mb 0.01 in0.3 mm 0.01 in0.3 mm 0.14 in3.6 mm
05:05 PM 42.1°F5.6°C 36.7°F2.6°C 81% 6.9 mph WNW11.1 kmh WNW 13.0 mph20.9 kmh 29.66 in1004.4 mb 0.01 in0.3 mm 0.00 in0.0 mm 0.14 in3.6 mm
05:10 PM 41.7°F5.4°C 36.6°F2.6°C 82% 5.4 mph WNW8.7 kmh WNW 13.6 mph21.9 kmh 29.66 in1004.4 mb 0.01 in0.3 mm 0.00 in0.0 mm 0.14 in3.6 mm
05:15 PM 41.5°F5.3°C 36.8°F2.7°C 83% 6.9 mph WNW11.1 kmh WNW 13.6 mph21.9 kmh 29.66 in1004.4 mb 0.01 in0.3 mm 0.00 in0.0 mm 0.14 in3.6 mm
05:20 PM 41.4°F5.2°C 36.6°F2.6°C 83% 5.4 mph WNW8.7 kmh WNW 13.0 mph20.9 kmh 29.66 in1004.4 mb 0.01 in0.3 mm 0.00 in0.0 mm 0.14 in3.6 mm
05:25 PM 41.2°F5.1°C 36.7°F2.6°C 84% 3.8 mph WNW6.1 kmh WNW 13.0 mph20.9 kmh 29.67 in1004.7 mb 0.01 in0.3 mm 0.00 in0.0 mm 0.14 in3.6 mm
05:30 PM 41.2°F5.1°C 36.7°F2.6°C 84% 8.3 mph WNW13.4 kmh WNW 13.0 mph20.9 kmh 29.66 in1004.4 mb 0.01 in0.3 mm 0.00 in0.0 mm 0.14 in3.6 mm
05:35 PM 41.0°F5.0°C 36.8°F2.7°C 85% 6.9 mph WNW11.1 kmh WNW 13.0 mph20.9 kmh 29.66 in1004.4 mb 0.02 in0.5 mm 0.12 in3.0 mm 0.15 in3.8 mm
05:40 PM 41.0°F5.0°C 36.8°F2.7°C 85% 4.5 mph W7.2 kmh W 11.4 mph18.3 kmh 29.66 in1004.4 mb 0.02 in0.5 mm 0.00 in0.0 mm 0.15 in3.8 mm
05:45 PM 41.0°F5.0°C 36.8°F2.7°C 85% 3.1 mph W5.0 kmh W 10.7 mph17.2 kmh 29.66 in1004.4 mb 0.02 in0.5 mm 0.00 in0.0 mm 0.15 in3.8 mm
05:50 PM 40.8°F4.9°C 37.3°F2.9°C 87% 3.1 mph W5.0 kmh W 7.6 mph12.2 kmh 29.66 in1004.4 mb 0.02 in0.5 mm 0.00 in0.0 mm 0.15 in3.8 mm
05:55 PM 40.8°F4.9°C 37.3°F2.9°C 87% 4.5 mph WSW7.2 kmh WSW 6.9 mph11.1 kmh 29.66 in1004.4 mb 0.02 in0.5 mm 0.00 in0.0 mm 0.15 in3.8 mm
06:00 PM 40.8°F4.9°C 37.3°F2.9°C 87% 3.8 mph WSW6.1 kmh WSW 7.6 mph12.2 kmh 29.67 in1004.7 mb 0.01 in0.3 mm 0.00 in0.0 mm 0.15 in3.8 mm
06:05 PM 40.8°F4.9°C 37.3°F2.9°C 87% 3.8 mph WNW6.1 kmh WNW 7.6 mph12.2 kmh 29.67 in1004.7 mb 0.01 in0.3 mm 0.00 in0.0 mm 0.15 in3.8 mm
06:10 PM 40.8°F4.9°C 37.5°F3.1°C 88% 1.6 mph WNW2.6 kmh WNW 6.0 mph9.7 kmh 29.67 in1004.7 mb 0.01 in0.3 mm 0.00 in0.0 mm 0.15 in3.8 mm
06:15 PM 40.8°F4.9°C 37.5°F3.1°C 88% 3.8 mph W6.1 kmh W 9.2 mph14.8 kmh 29.68 in1005.1 mb 0.01 in0.3 mm 0.00 in0.0 mm 0.15 in3.8 mm
06:20 PM 40.8°F4.9°C 37.5°F3.1°C 88% 4.5 mph WNW7.2 kmh WNW 9.2 mph14.8 kmh 29.67 in1004.7 mb 0.01 in0.3 mm 0.00 in0.0 mm 0.15 in3.8 mm
06:25 PM 40.6°F4.8°C 37.4°F3.0°C 88% 3.8 mph W6.1 kmh W 9.8 mph15.8 kmh 29.67 in1004.7 mb 0.01 in0.3 mm 0.00 in0.0 mm 0.15 in3.8 mm
06:30 PM 40.6°F4.8°C 37.4°F3.0°C 88% 5.4 mph W8.7 kmh W 9.8 mph15.8 kmh 29.68 in1005.1 mb 0.01 in0.3 mm 0.00 in0.0 mm 0.15 in3.8 mm
06:35 PM 40.5°F4.7°C 37.2°F2.9°C 88% 3.1 mph NW5.0 kmh NW 8.3 mph13.4 kmh 29.68 in1005.1 mb 0.00 in0.0 mm 0.00 in0.0 mm 0.15 in3.8 mm
06:40 PM 40.3°F4.6°C 37.0°F2.8°C 88% 2.2 mph WNW3.5 kmh WNW 8.3 mph13.4 kmh 29.68 in1005.1 mb 0.01 in0.3 mm 0.12 in3.0 mm 0.17 in4.3 mm
06:45 PM 40.3°F4.6°C 37.0°F2.8°C 88% 2.2 mph NW3.5 kmh NW 6.0 mph9.7 kmh 29.68 in1005.1 mb 0.01 in0.3 mm 0.00 in0.0 mm 0.17 in4.3 mm
06:50 PM 40.3°F4.6°C 37.0°F2.8°C 88% 1.6 mph NW2.6 kmh NW 6.0 mph9.7 kmh 29.68 in1005.1 mb 0.01 in0.3 mm 0.00 in0.0 mm 0.17 in4.3 mm
06:55 PM 40.1°F4.5°C 36.8°F2.7°C 88% 2.2 mph NW3.5 kmh NW 6.0 mph9.7 kmh 29.69 in1005.4 mb 0.01 in0.3 mm 0.00 in0.0 mm 0.17 in4.3 mm
07:00 PM 40.1°F4.5°C 37.1°F2.8°C 89% 3.1 mph NW5.0 kmh NW 6.9 mph11.1 kmh 29.69 in1005.4 mb 0.01 in0.3 mm 0.00 in0.0 mm 0.17 in4.3 mm
07:05 PM 39.9°F4.4°C 36.9°F2.7°C 89% 3.1 mph NW5.0 kmh NW 6.9 mph11.1 kmh 29.70 in1005.8 mb 0.01 in0.3 mm 0.00 in0.0 mm 0.17 in4.3 mm
07:10 PM 39.9°F4.4°C 36.9°F2.7°C 89% 3.1 mph WNW5.0 kmh WNW 5.4 mph8.7 kmh 29.70 in1005.8 mb 0.01 in0.3 mm 0.00 in0.0 mm 0.17 in4.3 mm
07:15 PM 39.9°F4.4°C 36.9°F2.7°C 89% 4.5 mph WNW7.2 kmh WNW 8.3 mph13.4 kmh 29.70 in1005.8 mb 0.01 in0.3 mm 0.00 in0.0 mm 0.17 in4.3 mm
07:20 PM 39.9°F4.4°C 36.9°F2.7°C 89% 3.1 mph W5.0 kmh W 8.3 mph13.4 kmh 29.70 in1005.8 mb 0.04 in1.0 mm 0.36 in9.1 mm 0.19 in4.8 mm
07:25 PM 39.9°F4.4°C 36.9°F2.7°C 89% 4.5 mph WSW7.2 kmh WSW 8.3 mph13.4 kmh 29.70 in1005.8 mb 0.04 in1.0 mm 0.00 in0.0 mm 0.19 in4.8 mm
07:30 PM 39.7°F4.3°C 36.8°F2.7°C 89% 2.2 mph W3.5 kmh W 9.8 mph15.8 kmh 29.70 in1005.8 mb 0.04 in1.0 mm 0.00 in0.0 mm 0.19 in4.8 mm
07:35 PM 39.7°F4.3°C 36.8°F2.7°C 89% 3.1 mph WSW5.0 kmh WSW 9.8 mph15.8 kmh 29.69 in1005.4 mb 0.04 in1.0 mm 0.00 in0.0 mm 0.19 in4.8 mm
07:40 PM 39.6°F4.2°C 36.6°F2.6°C 89% 2.2 mph WSW3.5 kmh WSW 6.9 mph11.1 kmh 29.70 in1005.8 mb 0.02 in0.5 mm 0.00 in0.0 mm 0.19 in4.8 mm
07:45 PM 39.4°F4.1°C 36.4°F2.4°C 89% 3.1 mph WSW5.0 kmh WSW 8.3 mph13.4 kmh 29.70 in1005.8 mb 0.02 in0.5 mm 0.00 in0.0 mm 0.19 in4.8 mm
07:50 PM 39.0°F3.9°C 36.3°F2.4°C 90% 3.1 mph WSW5.0 kmh WSW 8.3 mph13.4 kmh 29.70 in1005.8 mb 0.02 in0.5 mm 0.00 in0.0 mm 0.19 in4.8 mm
07:55 PM 38.8°F3.8°C 36.2°F2.3°C 90% 0.7 mph WSW1.1 kmh WSW 7.6 mph12.2 kmh 29.70 in1005.8 mb 0.02 in0.5 mm 0.00 in0.0 mm 0.19 in4.8 mm
08:00 PM 38.7°F3.7°C 36.0°F2.2°C 90% 4.5 mph WSW7.2 kmh WSW 6.9 mph11.1 kmh 29.70 in1005.8 mb 0.02 in0.5 mm 0.00 in0.0 mm 0.19 in4.8 mm
08:05 PM 38.5°F3.6°C 35.8°F2.1°C 90% 3.1 mph WSW5.0 kmh WSW 6.9 mph11.1 kmh 29.70 in1005.8 mb 0.02 in0.5 mm 0.00 in0.0 mm 0.19 in4.8 mm
08:10 PM 38.5°F3.6°C 35.8°F2.1°C 90% 2.2 mph WSW3.5 kmh WSW 6.9 mph11.1 kmh 29.70 in1005.8 mb 0.02 in0.5 mm 0.00 in0.0 mm 0.19 in4.8 mm
08:15 PM 38.5°F3.6°C 36.1°F2.3°C 91% 3.1 mph W5.0 kmh W 6.0 mph9.7 kmh 29.70 in1005.8 mb 0.01 in0.3 mm 0.00 in0.0 mm 0.19 in4.8 mm
08:20 PM 38.7°F3.7°C 36.3°F2.4°C 91% 3.1 mph WSW5.0 kmh WSW 6.9 mph11.1 kmh 29.71 in1006.1 mb 0.00 in0.0 mm 0.00 in0.0 mm 0.19 in4.8 mm
08:25 PM 38.7°F3.7°C 36.3°F2.4°C 91% 2.2 mph WSW3.5 kmh WSW 6.9 mph11.1 kmh 29.71 in1006.1 mb 0.00 in0.0 mm 0.00 in0.0 mm 0.19 in4.8 mm
08:30 PM 38.8°F3.8°C 36.4°F2.4°C 91% 0.7 mph W1.1 kmh W 5.4 mph8.7 kmh 29.72 in1006.4 mb 0.00 in0.0 mm 0.00 in0.0 mm 0.19 in4.8 mm
08:35 PM 38.8°F3.8°C 36.4°F2.4°C 91% 3.1 mph WSW5.0 kmh WSW 4.5 mph7.2 kmh 29.71 in1006.1 mb 0.00 in0.0 mm 0.00 in0.0 mm 0.19 in4.8 mm
08:40 PM 38.8°F3.8°C 36.4°F2.4°C 91% 3.8 mph WSW6.1 kmh WSW 5.4 mph8.7 kmh 29.72 in1006.4 mb 0.00 in0.0 mm 0.00 in0.0 mm 0.19 in4.8 mm
08:45 PM 39.0°F3.9°C 36.6°F2.6°C 91% 3.8 mph W6.1 kmh W 7.6 mph12.2 kmh 29.71 in1006.1 mb 0.00 in0.0 mm 0.00 in0.0 mm 0.19 in4.8 mm
08:50 PM 39.2°F4.0°C 36.5°F2.5°C 90% 2.2 mph W3.5 kmh W 7.6 mph12.2 kmh 29.71 in1006.1 mb 0.00 in0.0 mm 0.00 in0.0 mm 0.19 in4.8 mm
08:55 PM 39.2°F4.0°C 36.5°F2.5°C 90% 3.8 mph WNW6.1 kmh WNW 7.6 mph12.2 kmh 29.71 in1006.1 mb 0.00 in0.0 mm 0.00 in0.0 mm 0.19 in4.8 mm
09:00 PM 39.2°F4.0°C 36.5°F2.5°C 90% 3.8 mph WSW6.1 kmh WSW 8.3 mph13.4 kmh 29.71 in1006.1 mb 0.00 in0.0 mm 0.00 in0.0 mm 0.19 in4.8 mm
09:05 PM 39.2°F4.0°C 36.5°F2.5°C 90% 1.6 mph WSW2.6 kmh WSW 8.3 mph13.4 kmh 29.72 in1006.4 mb 0.00 in0.0 mm 0.00 in0.0 mm 0.19 in4.8 mm
09:10 PM 39.2°F4.0°C 36.2°F2.3°C 89% 4.5 mph WSW7.2 kmh WSW 7.6 mph12.2 kmh 29.72 in1006.4 mb 0.00 in0.0 mm 0.00 in0.0 mm 0.19 in4.8 mm
09:15 PM 39.2°F4.0°C 36.2°F2.3°C 89% 3.1 mph WSW5.0 kmh WSW 9.2 mph14.8 kmh 29.72 in1006.4 mb 0.00 in0.0 mm 0.00 in0.0 mm 0.19 in4.8 mm
09:20 PM 39.0°F3.9°C 36.3°F2.4°C 90% 3.8 mph WSW6.1 kmh WSW 9.2 mph14.8 kmh 29.72 in1006.4 mb 0.00 in0.0 mm 0.00 in0.0 mm 0.19 in4.8 mm
09:25 PM 39.0°F3.9°C 36.3°F2.4°C 90% 1.6 mph W2.6 kmh W 6.0 mph9.7 kmh 29.72 in1006.4 mb 0.00 in0.0 mm 0.00 in0.0 mm 0.19 in4.8 mm
09:30 PM 38.8°F3.8°C 36.2°F2.3°C 90% 4.5 mph WSW7.2 kmh WSW 7.6 mph12.2 kmh 29.72 in1006.4 mb 0.01 in0.3 mm 0.12 in3.0 mm 0.20 in5.1 mm
09:35 PM 38.7°F3.7°C 36.0°F2.2°C 90% 1.6 mph SW2.6 kmh SW 7.6 mph12.2 kmh 29.73 in1006.8 mb 0.01 in0.3 mm 0.00 in0.0 mm 0.20 in5.1 mm
09:40 PM 38.5°F3.6°C 35.8°F2.1°C 90% 3.8 mph WSW6.1 kmh WSW 8.3 mph13.4 kmh 29.73 in1006.8 mb 0.01 in0.3 mm 0.00 in0.0 mm 0.20 in5.1 mm
09:45 PM 38.5°F3.6°C 35.8°F2.1°C 90% 1.6 mph WSW2.6 kmh WSW 9.2 mph14.8 kmh 29.73 in1006.8 mb 0.01 in0.3 mm 0.00 in0.0 mm 0.20 in5.1 mm
09:50 PM 38.3°F3.5°C 35.6°F2.0°C 90% 1.6 mph WSW2.6 kmh WSW 9.2 mph14.8 kmh 29.73 in1006.8 mb 0.01 in0.3 mm 0.00 in0.0 mm 0.20 in5.1 mm
09:55 PM 38.3°F3.5°C 35.6°F2.0°C 90% 1.6 mph WSW2.6 kmh WSW 4.5 mph7.2 kmh 29.73 in1006.8 mb 0.01 in0.3 mm 0.00 in0.0 mm 0.20 in5.1 mm
10:00 PM 38.3°F3.5°C 35.6°F2.0°C 90% 3.8 mph SW6.1 kmh SW 6.0 mph9.7 kmh 29.73 in1006.8 mb 0.01 in0.3 mm 0.00 in0.0 mm 0.20 in5.1 mm
10:05 PM 38.3°F3.5°C 35.6°F2.0°C 90% 2.2 mph SW3.5 kmh SW 6.0 mph9.7 kmh 29.74 in1007.1 mb 0.01 in0.3 mm 0.00 in0.0 mm 0.20 in5.1 mm
10:10 PM 38.3°F3.5°C 35.6°F2.0°C 90% 0.7 mph SW1.1 kmh SW 6.0 mph9.7 kmh 29.74 in1007.1 mb 0.01 in0.3 mm 0.00 in0.0 mm 0.20 in5.1 mm
10:15 PM 38.5°F3.6°C 35.8°F2.1°C 90% 0.7 mph SW1.1 kmh SW 3.8 mph6.1 kmh 29.74 in1007.1 mb 0.01 in0.3 mm 0.00 in0.0 mm 0.20 in5.1 mm
10:20 PM 38.5°F3.6°C 35.8°F2.1°C 90% 1.6 mph WSW2.6 kmh WSW 3.8 mph6.1 kmh 29.74 in1007.1 mb 0.01 in0.3 mm 0.00 in0.0 mm 0.20 in5.1 mm
10:25 PM 38.5°F3.6°C 35.8°F2.1°C 90% 2.2 mph WSW3.5 kmh WSW 3.8 mph6.1 kmh 29.74 in1007.1 mb 0.01 in0.3 mm 0.00 in0.0 mm 0.20 in5.1 mm
10:30 PM 38.5°F3.6°C 35.8°F2.1°C 90% 1.6 mph WSW2.6 kmh WSW 6.0 mph9.7 kmh 29.74 in1007.1 mb 0.00 in0.0 mm 0.00 in0.0 mm 0.20 in5.1 mm
10:35 PM 38.3°F3.5°C 35.6°F2.0°C 90% 0.7 mph SW1.1 kmh SW 6.0 mph9.7 kmh 29.74 in1007.1 mb 0.00 in0.0 mm 0.00 in0.0 mm 0.20 in5.1 mm
10:40 PM 38.1°F3.4°C 35.5°F1.9°C 90% Calm Calm 3.1 mph5.0 kmh 29.75 in1007.5 mb 0.00 in0.0 mm 0.00 in0.0 mm 0.20 in5.1 mm
10:45 PM 38.1°F3.4°C 35.5°F1.9°C 90% 0.7 mph WSW1.1 kmh WSW 3.1 mph5.0 kmh 29.75 in1007.5 mb 0.00 in0.0 mm 0.00 in0.0 mm 0.20 in5.1 mm
10:50 PM 37.9°F3.3°C 35.3°F1.8°C 90% 1.6 mph W2.6 kmh W 5.4 mph8.7 kmh 29.75 in1007.5 mb 0.00 in0.0 mm 0.00 in0.0 mm 0.20 in5.1 mm
10:55 PM 37.9°F3.3°C 35.3°F1.8°C 90% 3.1 mph WSW5.0 kmh WSW 5.4 mph8.7 kmh 29.76 in1007.8 mb 0.00 in0.0 mm 0.00 in0.0 mm 0.20 in5.1 mm
11:00 PM 37.9°F3.3°C 35.3°F1.8°C 90% 0.7 mph WSW1.1 kmh WSW 5.4 mph8.7 kmh 29.76 in1007.8 mb 0.00 in0.0 mm 0.00 in0.0 mm 0.20 in5.1 mm
11:05 PM 37.9°F3.3°C 35.3°F1.8°C 90% 0.7 mph W1.1 kmh W 4.5 mph7.2 kmh 29.76 in1007.8 mb 0.00 in0.0 mm 0.00 in0.0 mm 0.20 in5.1 mm
11:10 PM 37.8°F3.2°C 35.1°F1.7°C 90% 2.2 mph WNW3.5 kmh WNW 4.5 mph7.2 kmh 29.76 in1007.8 mb 0.00 in0.0 mm 0.00 in0.0 mm 0.20 in5.1 mm
11:15 PM 37.8°F3.2°C 35.1°F1.7°C 90% 1.6 mph WNW2.6 kmh WNW 3.8 mph6.1 kmh 29.77 in1008.1 mb 0.00 in0.0 mm 0.00 in0.0 mm 0.20 in5.1 mm
11:20 PM 37.6°F3.1°C 34.9°F1.6°C 90% 2.2 mph W3.5 kmh W 3.8 mph6.1 kmh 29.77 in1008.1 mb 0.00 in0.0 mm 0.00 in0.0 mm 0.20 in5.1 mm
11:25 PM 37.4°F3.0°C 34.7°F1.5°C 90% 0.7 mph WSW1.1 kmh WSW 3.8 mph6.1 kmh 29.77 in1008.1 mb 0.00 in0.0 mm 0.00 in0.0 mm 0.20 in5.1 mm
11:30 PM 37.4°F3.0°C 35.0°F1.7°C 91% 1.6 mph W2.6 kmh W 3.8 mph6.1 kmh 29.77 in1008.1 mb 0.00 in0.0 mm 0.00 in0.0 mm 0.20 in5.1 mm
11:35 PM 37.4°F3.0°C 35.0°F1.7°C 91% 1.6 mph NW2.6 kmh NW 3.1 mph5.0 kmh 29.77 in1008.1 mb 0.00 in0.0 mm 0.00 in0.0 mm 0.20 in5.1 mm
11:40 PM 37.2°F2.9°C 33.7°F0.9°C 87% 0.7 mph WNW1.1 kmh WNW 3.1 mph5.0 kmh 29.77 in1008.1 mb 0.00 in0.0 mm 0.00 in0.0 mm 0.20 in5.1 mm
11:45 PM 37.2°F2.9°C 33.7°F0.9°C 87% Calm Calm 3.1 mph5.0 kmh 29.77 in1008.1 mb 0.00 in0.0 mm 0.00 in0.0 mm 0.20 in5.1 mm
11:50 PM 37.2°F2.9°C 33.7°F0.9°C 87% Calm Calm 2.2 mph3.5 kmh 29.78 in1008.5 mb 0.00 in0.0 mm 0.00 in0.0 mm 0.20 in5.1 mm
11:55 PM 37.2°F2.9°C 34.0°F1.1°C 88% 0.7 mph N1.1 kmh N 2.2 mph3.5 kmh 29.78 in1008.5 mb 0.00 in0.0 mm 0.00 in0.0 mm 0.20 in5.1 mm